createdAt,value
2023-02-19T00:01:42.808Z,7.85
2023-02-19T00:04:12.580Z,6.93
2023-02-19T00:06:39.405Z,8.65
2023-02-19T00:09:06.327Z,7.88
2023-02-19T00:11:34.668Z,8.82
2023-02-19T00:14:02.500Z,7.93
2023-02-19T00:16:31.126Z,7.43
2023-02-19T00:18:59.012Z,10.77
2023-02-19T00:21:26.256Z,10.15
2023-02-19T00:24:01.617Z,8.57
2023-02-19T00:26:28.672Z,7.25
2023-02-19T00:28:56.417Z,7.55
2023-02-19T00:31:25.380Z,9.55
2023-02-19T00:33:56.925Z,7.53
2023-02-19T00:36:24.141Z,7.85
2023-02-19T00:38:51.565Z,8.98
2023-02-19T00:41:19.591Z,8.55
2023-02-19T00:43:53.272Z,7.53
2023-02-19T00:46:24.530Z,10.18
2023-02-19T00:48:51.142Z,8.48
2023-02-19T00:51:17.655Z,9.98
2023-02-19T00:53:44.655Z,8.50
2023-02-19T00:56:11.935Z,8.27
2023-02-19T00:58:38.866Z,8.02
2023-02-19T01:01:06.195Z,8.25
2023-02-19T01:03:34.067Z,8.35
2023-02-19T01:06:01.296Z,7.70
2023-02-19T01:08:28.216Z,9.63
2023-02-19T01:10:54.824Z,8.45
2023-02-19T01:13:21.348Z,9.27
2023-02-19T01:15:47.927Z,9.02
2023-02-19T01:18:14.666Z,8.15
2023-02-19T01:20:42.986Z,8.38
2023-02-19T01:23:11.471Z,10.80
2023-02-19T01:25:39.042Z,8.05
2023-02-19T01:28:05.972Z,8.95
2023-02-19T01:30:37.944Z,9.05
2023-02-19T01:33:06.171Z,8.82
2023-02-19T01:35:32.698Z,8.50
2023-02-19T01:37:59.391Z,10.75
2023-02-19T01:40:26.656Z,9.10
2023-02-19T01:42:53.147Z,8.25
2023-02-19T01:45:39.621Z,9.38
2023-02-19T01:48:14.036Z,8.95
2023-02-19T01:50:44.540Z,8.63
2023-02-19T01:53:13.251Z,9.68
2023-02-19T01:55:40.585Z,9.55
2023-02-19T01:58:08.567Z,10.73
2023-02-19T02:00:35.094Z,9.35
2023-02-19T02:03:01.710Z,10.07
2023-02-19T02:05:31.330Z,9.77
2023-02-19T02:07:58.591Z,11.75
2023-02-19T02:10:25.107Z,10.70
2023-02-19T02:12:53.329Z,11.80
2023-02-19T02:15:19.880Z,12.45
2023-02-19T02:18:08.395Z,14.15
2023-02-19T02:20:37.575Z,9.93
2023-02-19T02:23:24.013Z,9.32
2023-02-19T02:26:22.689Z,10.40
2023-02-19T02:29:10.469Z,9.85
2023-02-19T02:31:44.364Z,10.35
2023-02-19T02:34:15.382Z,9.98
2023-02-19T02:36:44.744Z,9.82
2023-02-19T02:39:14.443Z,12.48
2023-02-19T02:41:43.395Z,10.45
2023-02-19T02:44:09.955Z,10.88
2023-02-19T02:46:39.348Z,12.02
2023-02-19T02:49:10.140Z,11.73
2023-02-19T02:51:39.022Z,11.75
2023-02-19T02:54:10.048Z,11.38
2023-02-19T02:56:36.931Z,10.25
2023-02-19T02:59:06.009Z,11.30
2023-02-19T03:01:41.624Z,12.68
2023-02-19T03:04:15.860Z,9.02
2023-02-19T03:06:42.922Z,10.77
2023-02-19T03:09:12.549Z,11.30
2023-02-19T03:11:41.767Z,12.07
2023-02-19T03:14:15.767Z,13.85
2023-02-19T03:16:43.412Z,12.63
2023-02-19T03:19:13.047Z,9.55
2023-02-19T03:21:41.380Z,9.93
2023-02-19T03:24:10.347Z,13.30
2023-02-19T03:26:38.676Z,12.52
2023-02-19T03:29:06.215Z,12.70
2023-02-19T03:31:33.095Z,12.63
2023-02-19T03:34:05.920Z,13.35
2023-02-19T03:36:38.980Z,14.43
2023-02-19T03:39:07.658Z,13.25
2023-02-19T03:41:58.772Z,13.75
2023-02-19T03:44:30.431Z,13.07
2023-02-19T03:47:02.467Z,11.52
2023-02-19T03:49:47.219Z,13.05
2023-02-19T03:52:43.214Z,13.50
2023-02-19T03:55:42.000Z,14.60
2023-02-19T03:58:32.318Z,12.57
2023-02-19T04:01:06.011Z,12.00
2023-02-19T04:03:37.626Z,10.95
2023-02-19T04:06:17.706Z,12.25
2023-02-19T04:08:48.606Z,11.15
2023-02-19T04:11:16.599Z,13.27
2023-02-19T04:14:07.817Z,11.38
2023-02-19T04:16:38.200Z,11.57
2023-02-19T04:19:16.805Z,13.10
2023-02-19T04:21:45.135Z,11.25
2023-02-19T04:24:15.181Z,11.90
2023-02-19T04:26:42.422Z,10.27
2023-02-19T04:29:08.986Z,9.52
2023-02-19T04:31:35.881Z,9.07
2023-02-19T04:34:03.098Z,8.63
2023-02-19T04:36:31.578Z,7.70
2023-02-19T04:38:58.214Z,10.32
2023-02-19T04:41:24.829Z,7.00
2023-02-19T04:43:51.597Z,9.13
2023-02-19T04:46:18.234Z,10.68
2023-02-19T04:48:44.889Z,8.35
2023-02-19T04:51:11.946Z,6.65
2023-02-19T04:53:38.558Z,7.07
2023-02-19T04:56:13.771Z,6.50
2023-02-19T04:58:41.414Z,7.00
2023-02-19T05:01:08.984Z,6.40
2023-02-19T05:03:37.125Z,7.43
2023-02-19T05:06:05.035Z,6.72
2023-02-19T05:08:31.661Z,6.20
2023-02-19T05:11:02.760Z,6.85
2023-02-19T05:13:29.746Z,7.43
2023-02-19T05:16:04.878Z,6.15
2023-02-19T05:18:32.477Z,6.53
2023-02-19T05:20:59.379Z,5.95
2023-02-19T05:23:26.813Z,6.20
2023-02-19T05:25:53.715Z,6.10
2023-02-19T05:28:20.713Z,7.43
2023-02-19T05:30:49.291Z,8.57
2023-02-19T05:33:17.726Z,7.35
2023-02-19T05:35:46.145Z,7.65
2023-02-19T05:38:12.772Z,7.55
2023-02-19T05:40:39.731Z,8.70
2023-02-19T05:43:07.668Z,8.15
2023-02-19T05:45:36.529Z,7.65
2023-02-19T05:50:33.209Z,10.57
2023-02-19T05:53:00.840Z,8.57
2023-02-19T05:55:28.324Z,7.90
2023-02-19T05:57:55.362Z,6.75
2023-02-19T06:00:22.055Z,10.15
2023-02-19T06:02:48.616Z,6.47
2023-02-19T06:05:15.177Z,6.43
2023-02-19T06:07:41.744Z,7.65
2023-02-19T06:10:09.976Z,7.63
2023-02-19T06:12:36.950Z,7.32
2023-02-19T06:15:04.244Z,7.10
2023-02-19T06:17:30.869Z,7.47
2023-02-19T06:19:57.339Z,7.53
2023-02-19T06:22:23.819Z,9.13
2023-02-19T06:24:50.309Z,8.90
2023-02-19T06:27:16.816Z,8.93
2023-02-19T06:29:46.323Z,7.65
2023-02-19T06:32:12.817Z,10.43
2023-02-19T06:34:39.762Z,8.30
2023-02-19T06:37:06.262Z,9.80
2023-02-19T06:39:32.774Z,8.90
2023-02-19T06:41:59.375Z,9.27
2023-02-19T06:44:28.448Z,10.13
2023-02-19T06:46:55.685Z,7.70
2023-02-19T06:49:22.690Z,9.80
2023-02-19T06:51:49.195Z,8.30
2023-02-19T06:54:15.661Z,8.35
2023-02-19T06:56:44.902Z,7.53
2023-02-19T06:59:15.108Z,6.05
2023-02-19T07:01:41.613Z,7.05
2023-02-19T07:04:08.167Z,7.25
2023-02-19T07:06:37.792Z,7.60
2023-02-19T07:09:05.584Z,7.95
2023-02-19T07:11:33.611Z,6.85
2023-02-19T07:14:02.494Z,6.65
2023-02-19T07:16:29.285Z,7.93
2023-02-19T07:18:57.542Z,8.05
2023-02-19T07:21:24.396Z,5.95
2023-02-19T07:23:50.921Z,8.27
2023-02-19T07:26:18.969Z,8.38
2023-02-19T07:28:49.575Z,6.85
2023-02-19T07:31:17.152Z,6.47
2023-02-19T07:33:44.366Z,7.95
2023-02-19T07:36:11.188Z,6.15
2023-02-19T07:38:37.861Z,7.88
2023-02-19T07:41:07.141Z,8.40
2023-02-19T07:43:35.686Z,6.75
2023-02-19T07:46:10.837Z,6.85
2023-02-19T07:48:38.024Z,7.32
2023-02-19T07:51:06.993Z,7.35
2023-02-19T07:53:34.762Z,7.18
2023-02-19T07:56:06.459Z,6.00
2023-02-19T07:58:33.597Z,6.28
2023-02-19T08:01:15.928Z,8.70
2023-02-19T08:03:43.385Z,7.43
2023-02-19T08:06:12.369Z,6.90
2023-02-19T08:08:39.984Z,6.05
2023-02-19T08:11:06.859Z,5.68
2023-02-19T08:13:33.323Z,6.00
2023-02-19T08:16:15.682Z,5.65
2023-02-19T08:18:46.050Z,4.97
2023-02-19T08:21:12.698Z,6.70
2023-02-19T08:23:39.888Z,5.60
2023-02-19T08:26:06.784Z,6.43
2023-02-19T08:28:33.325Z,5.45
2023-02-19T08:31:02.122Z,6.10
2023-02-19T08:33:30.555Z,5.38
2023-02-19T08:35:57.263Z,6.15
2023-02-19T08:38:23.739Z,5.85
2023-02-19T08:40:50.277Z,5.13
2023-02-19T08:43:17.319Z,7.30
2023-02-19T08:45:45.146Z,7.75
2023-02-19T08:48:13.029Z,6.68
2023-02-19T08:50:39.943Z,6.35
2023-02-19T08:53:06.798Z,8.38
2023-02-19T08:55:33.701Z,7.18
2023-02-19T08:58:00.828Z,9.98
2023-02-19T09:00:28.001Z,5.45
2023-02-19T09:02:57.440Z,5.47
2023-02-19T09:05:23.925Z,6.22
2023-02-19T09:07:50.397Z,5.43
2023-02-19T09:10:16.942Z,6.13
2023-02-19T09:12:44.435Z,4.80
2023-02-19T09:15:14.322Z,5.85
2023-02-19T09:17:40.816Z,4.60
2023-02-19T09:20:13.841Z,4.25
2023-02-19T09:22:40.324Z,4.72
2023-02-19T09:25:07.339Z,4.30
2023-02-19T09:27:33.929Z,6.30
2023-02-19T09:30:00.426Z,5.90
2023-02-19T09:32:35.963Z,6.93
2023-02-19T09:35:02.449Z,6.45
2023-02-19T09:37:29.121Z,5.15
2023-02-19T09:39:55.742Z,8.43
2023-02-19T09:42:28.614Z,4.22
2023-02-19T09:44:57.438Z,5.22
2023-02-19T09:47:26.635Z,5.45
2023-02-19T09:49:58.706Z,6.57
2023-02-19T09:52:32.975Z,3.78
2023-02-19T09:55:09.380Z,5.10
2023-02-19T09:57:36.429Z,5.50
2023-02-19T10:00:11.794Z,4.85
2023-02-19T10:02:38.631Z,5.35
2023-02-19T10:05:15.454Z,4.22
2023-02-19T10:07:44.832Z,7.55
2023-02-19T10:10:16.117Z,5.75
2023-02-19T10:12:48.705Z,4.88
2023-02-19T10:15:23.091Z,8.18
2023-02-19T10:17:50.803Z,7.05
2023-02-19T10:20:20.090Z,9.88
2023-02-19T10:22:46.854Z,9.90
2023-02-19T10:25:15.495Z,16.52
2023-02-19T10:27:43.026Z,12.32
2023-02-19T10:30:24.379Z,6.68
2023-02-19T10:33:10.361Z,6.88
2023-02-19T10:35:51.443Z,7.68
2023-02-19T10:38:19.087Z,8.93
2023-02-19T10:40:46.015Z,7.25
2023-02-19T10:43:25.009Z,8.93
2023-02-19T10:45:53.214Z,20.92
2023-02-19T10:48:32.221Z,8.65
2023-02-19T10:51:02.777Z,7.03
2023-02-19T10:54:04.586Z,9.48
2023-02-19T10:56:31.286Z,9.15
2023-02-19T10:59:20.269Z,33.70
2023-02-19T11:02:03.921Z,17.27
2023-02-19T11:04:32.675Z,12.82
2023-02-19T11:07:13.158Z,8.75
2023-02-19T11:09:42.018Z,8.48
2023-02-19T11:12:09.778Z,6.07
2023-02-19T11:14:36.500Z,6.13
2023-02-19T11:17:04.268Z,5.70
2023-02-19T11:19:33.918Z,5.72
2023-02-19T11:22:01.257Z,4.82
2023-02-19T11:24:33.916Z,5.45
2023-02-19T11:27:07.776Z,5.10
2023-02-19T11:29:34.499Z,4.93
2023-02-19T11:32:30.010Z,5.03
2023-02-19T11:35:26.280Z,5.43
2023-02-19T11:38:00.599Z,15.85
2023-02-19T11:40:56.273Z,29.17
2023-02-19T11:43:35.160Z,19.13
2023-02-19T11:46:16.763Z,8.10
2023-02-19T11:49:10.226Z,34.55
2023-02-19T11:51:52.963Z,14.85
2023-02-19T11:54:32.334Z,81.07
2023-02-19T11:57:09.915Z,37.83
2023-02-19T11:59:44.082Z,7.82
2023-02-19T12:02:38.270Z,12.50
2023-02-19T12:05:08.470Z,6.00
2023-02-19T12:07:57.398Z,6.38
2023-02-19T12:11:08.438Z,6.60
2023-02-19T12:13:53.106Z,6.88
2023-02-19T12:16:34.375Z,4.97
2023-02-19T12:19:13.041Z,5.68
2023-02-19T12:22:04.899Z,6.05
2023-02-19T12:24:50.439Z,5.00
2023-02-19T12:27:33.995Z,5.75
2023-02-19T12:30:19.297Z,6.10
2023-02-19T12:33:00.883Z,6.20
2023-02-19T12:35:52.276Z,4.45
2023-02-19T12:38:31.822Z,4.63
2023-02-19T12:41:18.613Z,5.53
2023-02-19T12:43:55.528Z,4.88
2023-02-19T12:46:31.386Z,4.80
2023-02-19T12:49:06.659Z,8.18
2023-02-19T12:51:38.590Z,5.78
2023-02-19T12:54:14.983Z,3.92
2023-02-19T12:56:46.982Z,6.03
2023-02-19T12:59:45.966Z,3.83
2023-02-19T13:02:21.208Z,5.00
2023-02-19T13:04:56.644Z,4.78
2023-02-19T13:07:31.735Z,4.15
2023-02-19T13:10:05.923Z,4.47
2023-02-19T13:12:38.641Z,2.83
2023-02-19T13:15:15.237Z,4.43
2023-02-19T13:17:51.579Z,5.03
2023-02-19T13:20:33.092Z,5.67
2023-02-19T13:23:18.911Z,3.83
2023-02-19T13:25:52.068Z,5.88
2023-02-19T13:28:32.858Z,4.55
2023-02-19T13:31:05.369Z,7.10
2023-02-19T13:33:56.502Z,4.47
2023-02-19T13:36:26.321Z,6.10
2023-02-19T13:38:53.187Z,5.90
2023-02-19T13:41:26.885Z,5.73
2023-02-19T13:43:55.389Z,4.60
2023-02-19T13:46:22.005Z,4.20
2023-02-19T13:48:48.835Z,4.63
2023-02-19T13:51:18.402Z,5.13
2023-02-19T13:53:44.811Z,15.43
2023-02-19T13:56:29.994Z,5.20
2023-02-19T13:59:13.534Z,3.90
2023-02-19T14:01:58.461Z,3.67
2023-02-19T14:04:46.075Z,9.70
2023-02-19T14:07:12.938Z,7.77
2023-02-19T14:09:39.397Z,3.90
2023-02-19T14:12:08.901Z,6.57
2023-02-19T14:14:36.412Z,17.75
2023-02-19T14:17:08.951Z,7.63
2023-02-19T14:19:41.394Z,4.13
2023-02-19T14:22:44.952Z,5.10
2023-02-19T14:25:38.215Z,5.07
2023-02-19T14:28:10.909Z,3.43
2023-02-19T14:30:44.432Z,9.90
2023-02-19T14:33:11.504Z,4.67
2023-02-19T14:35:41.588Z,4.00
2023-02-19T14:40:39.862Z,2.40
2023-02-19T14:43:06.593Z,3.70
2023-02-19T14:45:40.877Z,3.27
2023-02-19T14:48:15.349Z,3.27
2023-02-19T14:50:42.015Z,3.17
2023-02-19T14:53:08.949Z,2.77
2023-02-19T14:55:37.733Z,4.03
2023-02-19T14:58:15.855Z,3.90
2023-02-19T15:00:42.792Z,3.93
2023-02-19T15:03:36.688Z,5.10
2023-02-19T15:06:11.473Z,3.70
2023-02-19T15:08:47.001Z,4.27
2023-02-19T15:11:24.701Z,4.93
2023-02-19T15:14:06.164Z,4.30
2023-02-19T15:16:35.062Z,4.63
2023-02-19T15:19:05.737Z,4.33
2023-02-19T15:21:33.141Z,3.70
2023-02-19T15:24:02.214Z,3.40
2023-02-19T15:26:36.901Z,3.67
2023-02-19T15:29:10.493Z,4.20
2023-02-19T15:31:37.405Z,3.23
2023-02-19T15:34:04.051Z,10.17
2023-02-19T15:36:36.108Z,3.90
2023-02-19T15:39:05.294Z,5.57
2023-02-19T15:42:01.390Z,9.33
2023-02-19T15:44:58.138Z,6.93
2023-02-19T15:47:36.335Z,2.60
2023-02-19T15:50:17.091Z,1.00
2023-02-19T15:52:55.012Z,3.13
2023-02-19T15:55:29.264Z,0.80
2023-02-19T15:58:14.906Z,0.80
2023-02-19T16:00:52.121Z,0.60
2023-02-19T16:03:21.109Z,1.10
2023-02-19T16:06:08.455Z,0.57
2023-02-19T16:08:36.851Z,0.60
2023-02-19T16:11:30.386Z,1.33
2023-02-19T16:14:16.620Z,0.82
2023-02-19T16:16:43.940Z,1.00
2023-02-19T16:19:10.779Z,1.50
2023-02-19T16:21:37.545Z,1.30
2023-02-19T16:24:11.537Z,0.80
2023-02-19T16:26:42.062Z,4.15
2023-02-19T16:29:24.869Z,1.15
2023-02-19T16:32:02.406Z,0.50
2023-02-19T16:34:43.470Z,0.60
2023-02-19T16:37:34.963Z,1.65
2023-02-19T16:40:07.553Z,1.30
2023-02-19T16:42:49.314Z,1.73
2023-02-19T16:45:16.730Z,1.08
2023-02-19T16:47:44.114Z,0.68
2023-02-19T16:50:26.378Z,0.63
2023-02-19T16:52:58.308Z,0.75
2023-02-19T16:55:25.468Z,0.80
2023-02-19T16:57:52.141Z,0.82
2023-02-19T17:00:19.526Z,1.27
2023-02-19T17:02:47.624Z,1.70
2023-02-19T17:05:14.662Z,0.60
2023-02-19T17:07:41.218Z,0.70
2023-02-19T17:10:08.112Z,2.45
2023-02-19T17:12:34.655Z,0.80
2023-02-19T17:15:01.173Z,1.17
2023-02-19T17:17:27.638Z,0.60
2023-02-19T17:19:54.158Z,1.63
2023-02-19T17:22:20.642Z,0.77
2023-02-19T17:24:47.200Z,2.30
2023-02-19T17:27:13.898Z,1.08
2023-02-19T17:29:40.484Z,1.13
2023-02-19T17:32:07.366Z,1.10
2023-02-19T17:34:33.949Z,2.53
2023-02-19T17:37:00.453Z,1.60
2023-02-19T17:39:27.088Z,2.80
2023-02-19T17:41:53.641Z,1.42
2023-02-19T17:44:20.474Z,2.65
2023-02-19T17:46:54.862Z,4.20
2023-02-19T17:49:21.443Z,1.42
2023-02-19T17:51:47.902Z,1.50
2023-02-19T17:54:14.363Z,1.77
2023-02-19T17:56:40.907Z,1.33
2023-02-19T17:59:07.578Z,2.08
2023-02-19T18:01:34.094Z,3.78
2023-02-19T18:04:00.858Z,1.88
2023-02-19T18:06:27.667Z,4.75
2023-02-19T18:08:54.278Z,1.40
2023-02-19T18:11:21.878Z,5.03
2023-02-19T18:13:50.144Z,2.30
2023-02-19T18:16:17.259Z,4.88
2023-02-19T18:18:45.120Z,4.35
2023-02-19T18:21:13.625Z,1.17
2023-02-19T18:23:40.541Z,2.20
2023-02-19T18:26:10.151Z,1.95
2023-02-19T18:28:37.657Z,2.40
2023-02-19T18:31:04.467Z,3.17
2023-02-19T18:33:31.032Z,3.25
2023-02-19T18:35:57.568Z,2.35
2023-02-19T18:38:24.308Z,2.58
2023-02-19T18:40:50.955Z,2.70
2023-02-19T18:43:17.612Z,12.02
2023-02-19T18:45:44.164Z,2.58
2023-02-19T18:48:10.669Z,5.13
2023-02-19T18:50:37.285Z,1.42
2023-02-19T18:53:03.821Z,1.73
2023-02-19T18:55:30.356Z,3.65
2023-02-19T18:57:56.892Z,2.83
2023-02-19T19:00:26.431Z,2.50
2023-02-19T19:02:56.057Z,2.92
2023-02-19T19:05:22.978Z,1.40
2023-02-19T19:07:54.377Z,1.90
2023-02-19T19:10:24.011Z,1.73
2023-02-19T19:12:50.958Z,3.33
2023-02-19T19:15:18.561Z,1.40
2023-02-19T19:17:45.933Z,1.80
2023-02-19T19:20:14.937Z,1.48
2023-02-19T19:22:41.541Z,2.25
2023-02-19T19:25:08.479Z,2.10
2023-02-19T19:27:37.335Z,1.73
2023-02-19T19:30:05.004Z,2.30
2023-02-19T19:32:31.523Z,1.98
2023-02-19T19:35:01.871Z,1.83
2023-02-19T19:37:34.025Z,1.27
2023-02-19T19:40:00.531Z,1.00
2023-02-19T19:42:29.022Z,1.48
2023-02-19T19:44:55.468Z,1.35
2023-02-19T19:47:23.201Z,0.95
2023-02-19T19:49:49.736Z,1.25
2023-02-19T19:52:16.324Z,1.30
2023-02-19T19:54:43.662Z,1.73
2023-02-19T19:57:10.972Z,1.00
2023-02-19T19:59:40.629Z,1.13
2023-02-19T20:02:07.947Z,1.50
2023-02-19T20:04:35.036Z,1.92
2023-02-19T20:07:01.832Z,0.90
2023-02-19T20:09:30.429Z,0.80
2023-02-19T20:11:57.016Z,1.73
2023-02-19T20:14:27.270Z,2.20
2023-02-19T20:16:55.132Z,1.80
2023-02-19T20:19:22.243Z,1.27
2023-02-19T20:21:53.323Z,3.58
2023-02-19T20:24:25.310Z,2.60
2023-02-19T20:26:54.829Z,3.10
2023-02-19T20:29:21.381Z,2.53
2023-02-19T20:31:51.824Z,2.40
2023-02-19T20:34:18.577Z,3.97
2023-02-19T20:36:46.702Z,2.25
2023-02-19T20:39:14.158Z,1.50
2023-02-19T20:41:45.169Z,2.30
2023-02-19T20:44:11.716Z,1.20
2023-02-19T20:46:45.427Z,2.22
2023-02-19T20:49:12.886Z,1.73
2023-02-19T20:51:53.858Z,2.17
2023-02-19T20:54:24.031Z,2.10
2023-02-19T20:56:52.911Z,1.90
2023-02-19T20:59:21.814Z,1.13
2023-02-19T21:01:48.664Z,2.05
2023-02-19T21:04:18.212Z,1.77
2023-02-19T21:06:47.208Z,2.55
2023-02-19T21:09:13.874Z,1.38
2023-02-19T21:11:40.340Z,1.90
2023-02-19T21:14:06.950Z,3.17
2023-02-19T21:16:33.628Z,3.15
2023-02-19T21:19:00.197Z,1.42
2023-02-19T21:21:26.838Z,1.67
2023-02-19T21:23:54.358Z,2.58
2023-02-19T21:26:21.332Z,1.90
2023-02-19T21:28:53.150Z,1.20
2023-02-19T21:31:20.646Z,2.85
2023-02-19T21:33:49.615Z,1.20
2023-02-19T21:36:18.370Z,1.65
2023-02-19T21:38:44.861Z,2.58
2023-02-19T21:41:11.320Z,2.83
2023-02-19T21:43:37.795Z,2.97
2023-02-19T21:46:04.460Z,3.50
2023-02-19T21:48:31.010Z,2.58
2023-02-19T21:50:57.504Z,1.52
2023-02-19T21:53:24.032Z,1.90
2023-02-19T21:55:58.205Z,2.15
2023-02-19T21:58:26.219Z,1.23
2023-02-19T22:00:52.858Z,2.25
2023-02-19T22:03:19.362Z,1.23
2023-02-19T22:05:45.932Z,1.95
2023-02-19T22:08:12.490Z,1.60
2023-02-19T22:10:38.950Z,1.73
2023-02-19T22:13:05.529Z,3.80
2023-02-19T22:15:32.145Z,1.67
2023-02-19T22:17:58.622Z,1.90
2023-02-19T22:20:25.269Z,1.60
2023-02-19T22:22:51.860Z,1.42
2023-02-19T22:25:18.788Z,1.35
2023-02-19T22:27:45.413Z,1.38
2023-02-19T22:30:12.299Z,1.75
2023-02-19T22:32:40.466Z,1.58
2023-02-19T22:35:07.453Z,1.63
2023-02-19T22:37:34.207Z,1.73
2023-02-19T22:40:01.000Z,2.30
2023-02-19T22:42:27.530Z,1.65
2023-02-19T22:44:54.002Z,2.75
2023-02-19T22:47:20.565Z,1.50
2023-02-19T22:49:47.167Z,2.28
2023-02-19T22:52:14.246Z,2.15
2023-02-19T22:54:40.885Z,2.72
2023-02-19T22:57:07.484Z,2.35
2023-02-19T22:59:34.225Z,3.10
2023-02-19T23:02:01.014Z,1.60
2023-02-19T23:04:27.771Z,1.63
2023-02-19T23:06:54.520Z,3.95
2023-02-19T23:09:28.702Z,2.17
2023-02-19T23:12:08.461Z,3.88
2023-02-19T23:14:35.259Z,2.88
2023-02-19T23:17:01.891Z,2.38
2023-02-19T23:19:28.370Z,1.85
2023-02-19T23:21:55.429Z,2.05
2023-02-19T23:24:21.947Z,2.65
2023-02-19T23:26:50.987Z,3.30
2023-02-19T23:29:19.696Z,4.63
2023-02-19T23:31:47.442Z,3.08
2023-02-19T23:34:14.402Z,4.93
2023-02-19T23:36:47.849Z,2.20
2023-02-19T23:39:16.803Z,2.15
2023-02-19T23:41:52.347Z,3.05
2023-02-19T23:44:19.263Z,2.88
2023-02-19T23:46:46.206Z,3.15
2023-02-19T23:49:13.502Z,3.25
2023-02-19T23:51:40.119Z,3.08
2023-02-19T23:54:07.112Z,2.58
2023-02-19T23:56:34.037Z,3.55
2023-02-19T23:59:00.787Z,2.25
